x

C10 - Navy-2 (42013) Weather Station

12:30pm - Mon 15th Oct 2018 All times are EDT. -4 hours from GMT.

  • Wind
    11mph, 13mph gusts
  • Sea Temp 82°f
  • Sea Pressure 1018.7mb
  • C10 - Navy-2
  • C10 - Navy-2

More Historic Weather Station data

Upgrade to MSW Pro to gain access to the past 30 days of data for over 8000 Wavebouys and Weather Stations around the globe.

Join

Comparision Forecast

View Surf forecast
   
Mon 10/15 12:30pm 11 13 mph 1018.7mb 82f
12:00pm 11 13 mph 1019mb 82f
11:30am 11 13 mph 1018.9mb 82f
11:00am 11 16 mph 1019.1mb 82f
10:30am 13 16 mph 1019.2mb 82f
10:00am 13 16 mph 1019.1mb 82f
9:30am 13 16 mph 1019.1mb 82f
9:00am 13 13 mph 1018.8mb 82f
8:30am 11 13 mph 1018.5mb 82f
8:00am 11 13 mph 1018.3mb 82f
7:30am 13 16 mph 1018.1mb 82f
7:00am 11 13 mph 1017.9mb 82f
6:30am 11 13 mph 1017.8mb 82f
6:00am 11 13 mph 1017.6mb 82f
5:30am 11 13 mph 1017.4mb 82f
5:00am 11 13 mph 1017.4mb 82f
3:30am 16 18 mph 1017.2mb 82f
3:00am 13 18 mph 1017.4mb 82f
Sun 10/14 9:30pm 11 13 mph 1017.2mb 83f
9:00pm 11 13 mph 1016.9mb 83f
8:30pm 9 11 mph 1016.5mb 83f
8:00pm 7 9 mph 1016.1mb 83f
7:30pm 4 7 mph 1015.9mb 83f
7:00pm 4 7 mph 1015.7mb 83f
6:30pm 4 4 mph 1015.5mb 83f
6:00pm 4 4 mph 1015.4mb 83f
5:30pm 4 4 mph 1015.5mb 83f
5:00pm 4 7 mph 1015.5mb 83f
4:30pm 7 9 mph 1015.5mb 83f
4:00pm 7 9 mph 1015.5mb 83f
3:30pm 7 7 mph 1015.5mb 83f
3:00pm 9 9 mph 1015.4mb 83f
2:30pm 9 11 mph 1015.7mb 83f
2:00pm 11 11 mph 1015.9mb 82f
1:30pm 11 13 mph 1016.2mb 82f
1:00pm 13 16 mph 1016.2mb 82f
12:30pm 11 13 mph 1016.6mb 82f
12:00pm 13 16 mph 1016.7mb 82f
11:30am 11 13 mph 1016.8mb 82f
11:00am 13 16 mph 1016.8mb 82f
8:30am 13 16 mph 1015.7mb 82f
8:00am 13 16 mph 1015.6mb 82f
7:30am 13 16 mph 1015.6mb 82f
7:00am 13 16 mph 1015.5mb 82f
3:30am 18 20 mph 1014.6mb 82f
3:00am 18 20 mph 1014.8mb 82f
Sat 10/13 11:30pm 9 11 mph 1014.3mb 82f
11:00pm 11 13 mph 1014.3mb 82f
10:30pm 11 13 mph 1014.1mb 82f
10:00pm 13 16 mph 1013.8mb 82f
9:30pm 13 16 mph 1013.6mb 82f
9:00pm 13 16 mph 1013.3mb 82f
8:30pm 13 13 mph 1012.9mb 82f
8:00pm 11 13 mph 1012.7mb 82f
7:30pm 13 16 mph 1012.4mb 82f
7:00pm 13 16 mph 1012.3mb 82f
5:30pm 11 13 mph 1012.2mb 83f
5:00pm 11 16 mph 1012.1mb 83f
4:30pm 11 13 mph 1012.3mb 83f
4:00pm 11 16 mph 1012.3mb 83f
3:30pm 11 13 mph 1012.5mb 82f
3:00pm 9 11 mph 1012.7mb 82f
2:30pm 9 11 mph 1013.1mb 82f
2:00pm 11 13 mph 1013.5mb 82f
1:30pm 11 16 mph 1013.8mb 82f
1:00pm 11 13 mph 1014.2mb 82f
12:30pm 11 16 mph 1014.3mb 82f
12:00pm 11 16 mph 1014.4mb 82f
10:30am 11 16 mph 1014.4mb 82f
10:00am 13 16 mph 1014.2mb 82f
9:30am 11 16 mph 1014.1mb 82f
9:00am 11 16 mph 1013.9mb 82f
8:30am 11 13 mph 1013.6mb 82f
8:00am 11 16 mph 1013.3mb 82f
7:30am 7 11 mph 1013.3mb 82f
7:00am 7 9 mph 1013mb 82f
6:30am 7 11 mph 1012.7mb 82f
6:00am 4 9 mph 1012.5mb 82f
5:30am 7 11 mph 1012.2mb 82f
5:00am 9 11 mph 1012.2mb 82f
4:30am 11 13 mph 1011.8mb 82f
4:00am 9 13 mph 1011.8mb 82f
2:30am 11 13 mph 1012mb 82f
2:00am 9 13 mph 1012mb 82f
1:30am 11 16 mph 1011.9mb 82f
1:00am 11 16 mph 1012.1mb 82f
12:30am 11 16 mph 1012mb 82f
12:00am 11 16 mph 1012mb 82f
Fri 10/12 10:30pm 11 16 mph 1012.1mb 82f
10:00pm 11 16 mph 1012mb 83f
8:30pm 13 18 mph 1011.2mb 82f
8:00pm 13 16 mph 1010.8mb 83f
7:30pm 11 16 mph 1010.6mb 83f
7:00pm 13 16 mph 1010.4mb 83f
6:30pm 13 16 mph 1010.5mb 83f
6:00pm 11 16 mph 1010.5mb 83f
5:30pm 11 13 mph 1010.3mb 83f
5:00pm 9 13 mph 1010.3mb 83f
4:30pm 9 11 mph 1010.3mb 83f
4:00pm 11 13 mph 1010.5mb 83f
3:30pm 11 16 mph 1010.8mb 83f
3:00pm 11 13 mph 1011mb 83f
2:30pm 9 11 mph 1011.2mb 83f
2:00pm 7 9 mph 1011.5mb 83f
1:30pm 4 7 mph 1011.7mb 83f
1:00pm 4 7 mph 1011.9mb 83f
12:30pm 7 9 mph 1012.1mb 83f
12:00pm 7 9 mph 1012.3mb 83f
11:30am 4 7 mph 1012.4mb 83f
11:00am 4 7 mph 1012.5mb 83f
10:30am 4 7 mph 1012.4mb 83f
10:00am 4 7 mph 1012.6mb 83f
9:30am 7 9 mph 1012.5mb 83f
9:00am 7 9 mph 1012.3mb 83f
8:30am 9 13 mph 1012.1mb 83f
8:00am 11 16 mph 1012mb 83f
7:30am 11 16 mph 1011.9mb 83f
7:00am 11 13 mph 1011.7mb 83f
6:30am 11 13 mph 1011.5mb 83f
6:00am 13 16 mph 1011.3mb 83f
5:30am 11 13 mph 1011mb 83f
5:00am 11 16 mph 1011mb 83f
4:30am 11 13 mph 1010.9mb 83f
4:00am 11 13 mph 1010.7mb 83f
3:30am 11 13 mph 1010.5mb 83f
3:00am 9 11 mph 1010.8mb 83f
1:30am 9 11 mph 1011.3mb 83f
1:00am 9 11 mph 1011.4mb 83f
12:30am 9 11 mph 1011.6mb 83f
12:00am 9 9 mph 1011.9mb 83f
Thu 10/11 11:30pm 9 11 mph 1011.8mb 83f
11:00pm 9 11 mph 1011.8mb 83f
10:30pm 4 11 mph 1011.7mb 83f
10:00pm 2 4 mph 1011.7mb 83f
9:30pm 2 7 mph 1011.5mb 83f
9:00pm 9 11 mph 1011.4mb 83f
8:30pm 7 9 mph 1011.2mb 83f
8:00pm 7 9 mph 1011.1mb 83f
7:30pm 7 9 mph 1010.9mb 83f
7:00pm 7 9 mph 1010.7mb 83f
6:30pm 9 11 mph 1010.7mb 83f
6:00pm 9 9 mph 1010.5mb 83f